createdAt,value
2017-07-15T00:02:58.748Z,0
2017-07-15T00:04:00.549Z,0
2017-07-15T00:05:02.013Z,0
2017-07-15T00:06:04.145Z,0
2017-07-15T00:07:05.945Z,0
2017-07-15T00:08:07.405Z,0
2017-07-15T00:09:08.544Z,0
2017-07-15T00:10:09.988Z,0
2017-07-15T00:11:11.453Z,0
2017-07-15T00:12:12.918Z,0
2017-07-15T00:13:14.379Z,0
2017-07-15T00:14:15.489Z,0
2017-07-15T00:15:16.955Z,0
2017-07-15T00:16:18.422Z,0
2017-07-15T00:17:20.557Z,0
2017-07-15T00:18:22.413Z,0
2017-07-15T00:19:24.548Z,0
2017-07-15T00:20:26.347Z,0
2017-07-15T00:21:28.124Z,0
2017-07-15T00:22:29.569Z,0
2017-07-15T00:23:31.368Z,0
2017-07-15T00:24:33.501Z,0
2017-07-15T00:25:34.944Z,0
2017-07-15T00:26:36.744Z,0
2017-07-15T00:27:38.553Z,0
2017-07-15T00:28:40.352Z,0
2017-07-15T00:29:42.154Z,0
2017-07-15T00:30:44.286Z,0
2017-07-15T00:31:46.419Z,0
2017-07-15T00:32:48.219Z,0
2017-07-15T00:33:50.351Z,0
2017-07-15T00:34:52.150Z,0
2017-07-15T00:35:54.284Z,0
2017-07-15T00:36:56.419Z,0
2017-07-15T00:37:58.555Z,0
2017-07-15T00:39:00.346Z,0
2017-07-15T00:40:01.816Z,0
2017-07-15T00:41:02.947Z,0
2017-07-15T00:42:04.392Z,0
2017-07-15T00:43:05.538Z,0
2017-07-15T00:44:07.667Z,0
2017-07-15T00:45:09.796Z,0
2017-07-15T00:46:11.930Z,0
2017-07-15T00:47:14.065Z,0
2017-07-15T00:48:15.844Z,0
2017-07-15T00:49:17.977Z,0
2017-07-15T00:50:20.110Z,0
2017-07-15T00:51:21.573Z,0
2017-07-15T00:52:23.039Z,0
2017-07-15T00:53:25.171Z,0
2017-07-15T00:54:27.306Z,0
2017-07-15T00:55:29.087Z,0
2017-07-15T00:56:31.223Z,0
2017-07-15T00:57:33.021Z,0
2017-07-15T00:58:34.796Z,0
2017-07-15T00:59:36.928Z,0
2017-07-15T01:00:38.728Z,0
2017-07-15T01:01:40.874Z,0
2017-07-15T01:02:42.676Z,0
2017-07-15T01:03:44.453Z,0
2017-07-15T01:04:46.586Z,0
2017-07-15T01:05:47.695Z,0
2017-07-15T01:06:49.162Z,0
2017-07-15T01:07:50.969Z,0
2017-07-15T01:08:52.437Z,0
2017-07-15T01:09:54.573Z,0
2017-07-15T01:10:56.372Z,0
2017-07-15T01:11:58.539Z,0
2017-07-15T01:12:59.980Z,0
2017-07-15T01:14:01.770Z,0
2017-07-15T01:15:02.871Z,0
2017-07-15T01:16:05.007Z,0
2017-07-15T01:17:06.778Z,0
2017-07-15T01:18:08.575Z,0
2017-07-15T01:19:10.374Z,0
2017-07-15T01:20:12.507Z,0
2017-07-15T01:21:14.643Z,0
2017-07-15T01:22:16.441Z,0
2017-07-15T01:23:18.590Z,0
2017-07-15T01:24:20.762Z,0
2017-07-15T01:25:22.212Z,0
2017-07-15T01:26:24.010Z,0
2017-07-15T01:27:25.115Z,0
2017-07-15T01:28:27.249Z,0
2017-07-15T01:29:28.694Z,0
2017-07-15T01:30:30.510Z,0
2017-07-15T01:31:32.644Z,0
2017-07-15T01:32:34.091Z,0
2017-07-15T01:33:35.889Z,0
2017-07-15T01:34:37.333Z,0
2017-07-15T01:35:39.112Z,0
2017-07-15T01:36:41.242Z,0
2017-07-15T01:37:42.370Z,0
2017-07-15T01:38:43.814Z,0
2017-07-15T01:39:45.620Z,0
2017-07-15T01:40:47.412Z,0
2017-07-15T01:41:49.549Z,0
2017-07-15T01:42:51.041Z,0
2017-07-15T01:43:53.176Z,0
2017-07-15T01:44:54.973Z,0
2017-07-15T01:45:57.150Z,0
2017-07-15T01:46:59.281Z,0
2017-07-15T01:48:00.415Z,0
2017-07-15T01:49:01.875Z,0
2017-07-15T01:50:02.981Z,0
2017-07-15T01:51:05.119Z,0
2017-07-15T01:52:06.585Z,0
2017-07-15T01:53:08.717Z,0
2017-07-15T01:54:10.183Z,0
2017-07-15T01:55:12.315Z,0
2017-07-15T01:56:13.420Z,0
2017-07-15T01:57:15.218Z,0
2017-07-15T01:58:17.360Z,0
2017-07-15T01:59:18.825Z,0
2017-07-15T02:00:20.604Z,0
2017-07-15T02:01:22.407Z,0
2017-07-15T02:02:23.870Z,0
2017-07-15T02:03:25.646Z,0
2017-07-15T02:04:27.782Z,0
2017-07-15T02:05:29.917Z,0
2017-07-15T02:06:32.053Z,0
2017-07-15T02:07:33.855Z,0
2017-07-15T02:08:35.987Z,0
2017-07-15T02:09:37.453Z,0
2017-07-15T02:10:39.255Z,0
2017-07-15T02:11:40.362Z,0
2017-07-15T02:12:42.571Z,0
2017-07-15T02:13:44.371Z,0
2017-07-15T02:14:45.834Z,0
2017-07-15T02:15:47.968Z,0
2017-07-15T02:16:50.119Z,0
2017-07-15T02:17:51.581Z,0
2017-07-15T02:18:53.717Z,0
2017-07-15T02:19:55.499Z,0
2017-07-15T02:20:57.651Z,0
2017-07-15T02:21:59.095Z,0
2017-07-15T02:23:00.893Z,0
2017-07-15T02:24:02.689Z,0
2017-07-15T02:25:04.823Z,0
2017-07-15T02:26:05.930Z,0
2017-07-15T02:27:07.397Z,0
2017-07-15T02:28:09.194Z,0
2017-07-15T02:29:10.660Z,0
2017-07-15T02:30:12.127Z,0
2017-07-15T02:31:14.258Z,0
2017-07-15T02:32:16.070Z,0
2017-07-15T02:33:17.875Z,0
2017-07-15T02:34:20.008Z,0
2017-07-15T02:35:21.449Z,0
2017-07-15T02:36:23.582Z,0
2017-07-15T02:37:25.378Z,0
2017-07-15T02:38:27.512Z,0
2017-07-15T02:39:28.956Z,0
2017-07-15T02:40:31.091Z,0
2017-07-15T02:41:32.534Z,0
2017-07-15T02:42:34.669Z,0
2017-07-15T02:43:36.803Z,0
2017-07-15T02:44:38.242Z,0
2017-07-15T02:45:39.686Z,0
2017-07-15T02:46:41.822Z,0
2017-07-15T02:47:43.624Z,0
2017-07-15T02:48:45.759Z,0
2017-07-15T02:49:47.228Z,0
2017-07-15T02:50:49.361Z,0
2017-07-15T02:51:51.163Z,0
2017-07-15T02:52:52.960Z,0
2017-07-15T02:53:54.759Z,0
2017-07-15T02:54:56.893Z,0
2017-07-15T02:55:59.028Z,0
2017-07-15T02:57:01.165Z,0
2017-07-15T02:58:02.608Z,0
2017-07-15T02:59:04.048Z,0
2017-07-15T03:00:06.181Z,0
2017-07-15T03:01:07.619Z,0
2017-07-15T03:02:09.755Z,0
2017-07-15T03:03:11.894Z,0
2017-07-15T03:04:13.694Z,0
2017-07-15T03:05:15.159Z,0
2017-07-15T03:06:16.964Z,0
2017-07-15T03:07:18.766Z,0
2017-07-15T03:08:20.217Z,0
2017-07-15T03:09:22.353Z,0
2017-07-15T03:10:24.488Z,0
2017-07-15T03:11:26.288Z,0
2017-07-15T03:12:28.086Z,0
2017-07-15T03:13:29.890Z,0
2017-07-15T03:14:31.693Z,0
2017-07-15T03:15:33.830Z,0
2017-07-15T03:16:35.634Z,0
2017-07-15T03:17:37.433Z,0
2017-07-15T03:18:39.212Z,0
2017-07-15T03:19:41.350Z,0
2017-07-15T03:20:43.482Z,0
2017-07-15T03:21:45.616Z,0
2017-07-15T03:22:47.091Z,0
2017-07-15T03:23:48.196Z,0
2017-07-15T03:24:49.979Z,0
2017-07-15T03:25:52.119Z,0
2017-07-15T03:26:54.252Z,0
2017-07-15T03:27:56.058Z,0
2017-07-15T03:28:57.198Z,0
2017-07-15T03:29:59.000Z,0
2017-07-15T03:31:01.134Z,0
2017-07-15T03:32:03.269Z,0
2017-07-15T03:33:05.068Z,0
2017-07-15T03:34:06.875Z,0
2017-07-15T03:35:08.351Z,0
2017-07-15T03:36:10.153Z,0
2017-07-15T03:37:11.953Z,0
2017-07-15T03:38:14.089Z,0
2017-07-15T03:39:15.889Z,0
2017-07-15T03:40:17.665Z,0
2017-07-15T03:41:19.800Z,0
2017-07-15T03:42:21.935Z,0
2017-07-15T03:43:23.380Z,0
2017-07-15T03:44:25.181Z,0
2017-07-15T03:45:27.314Z,0
2017-07-15T03:46:29.449Z,0
2017-07-15T03:47:30.555Z,0
2017-07-15T03:48:32.354Z,0
2017-07-15T03:49:34.497Z,0
2017-07-15T03:50:35.941Z,0
2017-07-15T03:51:37.409Z,0
2017-07-15T03:52:39.543Z,0
2017-07-15T03:53:41.680Z,0
2017-07-15T03:54:43.453Z,0
2017-07-15T03:55:44.590Z,0
2017-07-15T03:56:46.416Z,0
2017-07-15T03:57:47.883Z,0
2017-07-15T03:58:50.017Z,0
2017-07-15T03:59:51.814Z,0
2017-07-15T04:00:53.615Z,0
2017-07-15T04:01:55.058Z,0
2017-07-15T04:02:56.838Z,0
2017-07-15T04:03:58.281Z,0
2017-07-15T04:05:00.085Z,0
2017-07-15T04:06:01.861Z,0
2017-07-15T04:07:03.713Z,0
2017-07-15T04:08:05.519Z,0
2017-07-15T04:09:07.302Z,0
2017-07-15T04:10:09.434Z,0
2017-07-15T04:11:10.870Z,0
2017-07-15T04:12:12.668Z,0
2017-07-15T04:13:14.111Z,0
2017-07-15T04:14:16.243Z,0
2017-07-15T04:15:18.042Z,0
2017-07-15T04:16:19.490Z,0
2017-07-15T04:17:21.640Z,0
2017-07-15T04:18:23.441Z,0
2017-07-15T04:19:25.239Z,0
2017-07-15T04:20:27.041Z,0
2017-07-15T04:21:29.176Z,0
2017-07-15T04:22:29.955Z,0
2017-07-15T04:23:31.750Z,0
2017-07-15T04:24:33.213Z,5
2017-07-15T04:25:35.020Z,5
2017-07-15T04:26:36.479Z,5
2017-07-15T04:27:38.283Z,5
2017-07-15T04:28:39.728Z,5
2017-07-15T04:29:41.172Z,5
2017-07-15T04:30:42.623Z,5
2017-07-15T04:31:44.421Z,5
2017-07-15T04:32:46.560Z,5
2017-07-15T04:33:48.030Z,5
2017-07-15T04:34:50.161Z,5
2017-07-15T04:35:52.297Z,5
2017-07-15T04:36:54.433Z,5
2017-07-15T04:37:56.569Z,5
2017-07-15T04:38:58.030Z,5
2017-07-15T04:39:59.827Z,5
2017-07-15T04:41:01.607Z,5
2017-07-15T04:42:03.406Z,5
2017-07-15T04:43:05.184Z,5
2017-07-15T04:44:07.319Z,5
2017-07-15T04:45:08.765Z,5
2017-07-15T04:46:10.902Z,5
2017-07-15T04:47:13.059Z,5
2017-07-15T04:48:14.855Z,5
2017-07-15T04:49:16.653Z,5
2017-07-15T04:50:18.434Z,5
2017-07-15T04:51:20.236Z,5
2017-07-15T04:52:22.036Z,5
2017-07-15T04:53:24.175Z,5
2017-07-15T04:54:25.975Z,5
2017-07-15T04:55:27.777Z,5
2017-07-15T04:56:29.578Z,5
2017-07-15T04:57:31.045Z,5
2017-07-15T04:58:32.484Z,5
2017-07-15T04:59:34.285Z,28
2017-07-15T05:00:36.085Z,5
2017-07-15T05:01:37.881Z,5
2017-07-15T05:02:39.682Z,5
2017-07-15T05:03:41.486Z,5
2017-07-15T05:04:43.617Z,11
2017-07-15T05:05:45.061Z,11
2017-07-15T05:06:46.531Z,11
2017-07-15T05:07:48.380Z,11
2017-07-15T05:08:50.517Z,22
2017-07-15T05:09:52.662Z,22
2017-07-15T05:10:54.105Z,22
2017-07-15T05:11:56.239Z,22
2017-07-15T05:12:58.477Z,16
2017-07-15T05:14:00.610Z,16
2017-07-15T05:15:02.079Z,16
2017-07-15T05:16:03.878Z,16
2017-07-15T05:17:05.341Z,16
2017-07-15T05:18:07.147Z,22
2017-07-15T05:19:08.613Z,33
2017-07-15T05:20:10.078Z,39
2017-07-15T05:21:11.880Z,39
2017-07-15T05:22:13.681Z,45
2017-07-15T05:23:15.147Z,45
2017-07-15T05:24:16.924Z,45
2017-07-15T05:25:18.726Z,45
2017-07-15T05:26:20.533Z,33
2017-07-15T05:27:22.027Z,39
2017-07-15T05:28:23.479Z,39
2017-07-15T05:29:25.616Z,28
2017-07-15T05:30:26.728Z,16
2017-07-15T05:31:28.510Z,16
2017-07-15T05:32:30.310Z,22
2017-07-15T05:33:32.110Z,22
2017-07-15T05:34:33.909Z,33
2017-07-15T05:35:35.355Z,28
2017-07-15T05:36:36.802Z,28
2017-07-15T05:37:38.601Z,45
2017-07-15T05:38:40.836Z,39
2017-07-15T05:39:42.640Z,33
2017-07-15T05:40:44.778Z,22
2017-07-15T05:41:46.219Z,16
2017-07-15T05:42:48.357Z,16
2017-07-15T05:43:49.802Z,22
2017-07-15T05:44:51.605Z,22
2017-07-15T05:45:53.407Z,11
2017-07-15T05:46:55.206Z,16
2017-07-15T05:47:57.342Z,22
2017-07-15T05:48:59.475Z,28
2017-07-15T05:50:01.275Z,28
2017-07-15T05:51:03.410Z,28
2017-07-15T05:52:05.213Z,22
2017-07-15T05:53:06.683Z,22
2017-07-15T05:54:08.147Z,22
2017-07-15T05:55:09.593Z,16
2017-07-15T05:56:10.706Z,16
2017-07-15T05:57:12.507Z,16
2017-07-15T05:58:13.616Z,16
2017-07-15T05:59:14.725Z,16
2017-07-15T06:00:16.862Z,16
2017-07-15T06:01:19.007Z,16
2017-07-15T06:02:21.136Z,16
2017-07-15T06:03:22.943Z,16
2017-07-15T06:04:24.406Z,16
2017-07-15T06:05:26.186Z,16
2017-07-15T06:06:27.992Z,16
2017-07-15T06:07:29.101Z,16
2017-07-15T06:08:30.900Z,16
2017-07-15T06:09:32.361Z,16
2017-07-15T06:10:34.504Z,11
2017-07-15T06:11:36.297Z,11
2017-07-15T06:12:38.434Z,5
2017-07-15T06:13:40.237Z,11
2017-07-15T06:14:42.039Z,11
2017-07-15T06:15:43.842Z,11
2017-07-15T06:16:45.287Z,11
2017-07-15T06:17:46.420Z,16
2017-07-15T06:18:48.557Z,16
2017-07-15T06:19:50.358Z,16
2017-07-15T06:20:52.500Z,22
2017-07-15T06:21:53.936Z,33
2017-07-15T06:22:55.736Z,22
2017-07-15T06:23:57.183Z,33
2017-07-15T06:24:58.982Z,22
2017-07-15T06:26:00.449Z,33
2017-07-15T06:27:02.251Z,16
2017-07-15T06:28:03.717Z,16
2017-07-15T06:29:05.520Z,16
2017-07-15T06:30:07.319Z,22
2017-07-15T06:31:09.454Z,28
2017-07-15T06:32:11.590Z,16
2017-07-15T06:33:13.391Z,16
2017-07-15T06:34:15.188Z,33
2017-07-15T06:35:16.735Z,33
2017-07-15T06:36:18.533Z,33
2017-07-15T06:37:20.311Z,28
2017-07-15T06:38:22.129Z,22
2017-07-15T06:39:23.930Z,22
2017-07-15T06:40:25.731Z,16
2017-07-15T06:41:27.536Z,11
2017-07-15T06:42:28.983Z,16
2017-07-15T06:43:30.790Z,11
2017-07-15T06:44:32.926Z,11
2017-07-15T06:45:35.065Z,11
2017-07-15T06:46:36.534Z,22
2017-07-15T06:47:38.666Z,22
2017-07-15T06:48:40.137Z,22
2017-07-15T06:49:41.916Z,16
2017-07-15T06:50:44.064Z,16
2017-07-15T06:51:46.199Z,16
2017-07-15T06:52:48.336Z,16
2017-07-15T06:53:50.472Z,11
2017-07-15T06:54:52.278Z,11
2017-07-15T06:55:53.388Z,22
2017-07-15T06:56:55.187Z,11
2017-07-15T06:57:56.991Z,16
2017-07-15T06:58:58.797Z,22
2017-07-15T07:00:00.937Z,16
2017-07-15T07:01:02.405Z,16
2017-07-15T07:02:04.242Z,16
2017-07-15T07:03:06.042Z,16
2017-07-15T07:04:08.181Z,16
2017-07-15T07:05:09.627Z,16
2017-07-15T07:06:11.430Z,22
2017-07-15T07:07:13.566Z,22
2017-07-15T07:08:15.347Z,16
2017-07-15T07:09:17.153Z,22
2017-07-15T07:10:19.286Z,28
2017-07-15T07:11:21.090Z,28
2017-07-15T07:12:22.902Z,28
2017-07-15T07:13:24.364Z,28
2017-07-15T07:14:26.501Z,22
2017-07-15T07:15:28.305Z,28
2017-07-15T07:16:30.103Z,28
2017-07-15T07:17:32.240Z,28
2017-07-15T07:18:34.376Z,28
2017-07-15T07:19:36.515Z,28
2017-07-15T07:20:38.648Z,28
2017-07-15T07:21:40.450Z,28
2017-07-15T07:22:41.918Z,22
2017-07-15T07:23:43.697Z,22
2017-07-15T07:24:45.146Z,22
2017-07-15T07:25:46.594Z,28
2017-07-15T07:26:48.725Z,22
2017-07-15T07:27:50.866Z,22
2017-07-15T07:28:52.999Z,22
2017-07-15T07:29:55.152Z,22
2017-07-15T07:30:56.597Z,16
2017-07-15T07:31:58.068Z,16
2017-07-15T07:32:59.871Z,16
2017-07-15T07:34:01.343Z,16
2017-07-15T07:35:03.146Z,16
2017-07-15T07:36:04.949Z,16
2017-07-15T07:37:06.415Z,16
2017-07-15T07:38:07.868Z,16
2017-07-15T07:39:10.006Z,16
2017-07-15T07:40:11.450Z,22
2017-07-15T07:41:13.582Z,16
2017-07-15T07:42:15.721Z,16
2017-07-15T07:43:17.529Z,16
2017-07-15T07:44:19.329Z,16
2017-07-15T07:45:21.133Z,16
2017-07-15T07:46:23.272Z,16
2017-07-15T07:47:25.068Z,16
2017-07-15T07:48:26.852Z,16
2017-07-15T07:49:28.649Z,16
2017-07-15T07:50:30.092Z,16
2017-07-15T07:51:31.536Z,16
2017-07-15T07:52:32.987Z,22
2017-07-15T07:53:34.432Z,16
2017-07-15T07:54:36.233Z,16
2017-07-15T07:55:37.346Z,16
2017-07-15T07:56:39.151Z,22
2017-07-15T07:57:40.960Z,16
2017-07-15T07:58:42.763Z,16
2017-07-15T07:59:44.227Z,16
2017-07-15T08:00:46.033Z,16
2017-07-15T08:01:47.860Z,16
2017-07-15T08:02:49.668Z,16
2017-07-15T08:03:51.473Z,16
2017-07-15T08:04:53.277Z,16
2017-07-15T08:05:54.720Z,22
2017-07-15T08:06:56.907Z,16
2017-07-15T08:07:59.045Z,16
2017-07-15T08:09:00.513Z,22
2017-07-15T08:10:01.956Z,22
2017-07-15T08:11:03.405Z,22
2017-07-15T08:12:04.513Z,22
2017-07-15T08:13:06.654Z,22
2017-07-15T08:14:08.121Z,16
2017-07-15T08:15:10.257Z,16
2017-07-15T08:16:12.422Z,22
2017-07-15T08:17:14.275Z,22
2017-07-15T08:18:16.113Z,22
2017-07-15T08:19:17.906Z,22
2017-07-15T08:20:20.041Z,22
2017-07-15T08:21:21.841Z,22
2017-07-15T08:22:23.975Z,16
2017-07-15T08:23:24.744Z,16
2017-07-15T08:24:26.882Z,16
2017-07-15T08:25:29.024Z,22
2017-07-15T08:26:31.157Z,16
2017-07-15T08:27:32.625Z,16
2017-07-15T08:28:34.429Z,16
2017-07-15T08:29:36.231Z,16
2017-07-15T08:30:37.005Z,16
2017-07-15T08:31:38.451Z,16
2017-07-15T08:32:39.975Z,22
2017-07-15T08:33:41.773Z,22
2017-07-15T08:34:43.908Z,22
2017-07-15T08:35:45.709Z,22
2017-07-15T08:36:47.510Z,22
2017-07-15T08:37:49.317Z,28
2017-07-15T08:38:51.095Z,28
2017-07-15T08:39:53.232Z,28
2017-07-15T08:40:55.368Z,22
2017-07-15T08:41:57.169Z,16
2017-07-15T08:42:59.305Z,16
2017-07-15T08:44:01.107Z,11
2017-07-15T08:45:02.908Z,11
2017-07-15T08:46:04.708Z,11
2017-07-15T08:47:06.510Z,5
2017-07-15T08:48:08.648Z,11
2017-07-15T08:49:10.453Z,11
2017-07-15T08:50:12.595Z,11
2017-07-15T08:51:14.726Z,5
2017-07-15T08:52:16.859Z,5
2017-07-15T08:53:18.323Z,5
2017-07-15T08:54:19.790Z,5
2017-07-15T08:55:21.234Z,11
2017-07-15T08:56:22.705Z,11
2017-07-15T08:57:24.506Z,11
2017-07-15T08:58:25.975Z,11
2017-07-15T08:59:27.758Z,11
2017-07-15T09:00:29.894Z,11
2017-07-15T09:01:32.034Z,11
2017-07-15T09:02:33.501Z,11
2017-07-15T09:03:34.948Z,11
2017-07-15T09:04:36.432Z,11
2017-07-15T09:05:38.218Z,11
2017-07-15T09:06:40.021Z,11
2017-07-15T09:07:41.820Z,11
2017-07-15T09:08:42.597Z,11
2017-07-15T09:09:44.733Z,11
2017-07-15T09:10:46.871Z,11
2017-07-15T09:11:48.646Z,16
2017-07-15T09:12:50.429Z,11
2017-07-15T09:13:51.889Z,16
2017-07-15T09:14:53.667Z,11
2017-07-15T09:15:55.137Z,11
2017-07-15T09:16:56.938Z,11
2017-07-15T09:17:59.073Z,11
2017-07-15T09:19:01.212Z,11
2017-07-15T09:20:03.019Z,11
2017-07-15T09:21:04.818Z,11
2017-07-15T09:22:06.620Z,11
2017-07-15T09:23:08.065Z,16
2017-07-15T09:24:09.206Z,16
2017-07-15T09:25:10.648Z,16
2017-07-15T09:26:12.452Z,16
2017-07-15T09:27:13.895Z,16
2017-07-15T09:28:15.680Z,16
2017-07-15T09:29:17.462Z,16
2017-07-15T09:30:19.263Z,16
2017-07-15T09:31:20.710Z,16
2017-07-15T09:32:22.491Z,16
2017-07-15T09:33:23.940Z,16
2017-07-15T09:34:25.408Z,16
2017-07-15T09:35:26.851Z,16
2017-07-15T09:36:27.987Z,16
2017-07-15T09:37:29.435Z,11
2017-07-15T09:38:31.221Z,11
2017-07-15T09:39:32.690Z,11
2017-07-15T09:40:34.492Z,11
2017-07-15T09:41:36.628Z,16
2017-07-15T09:42:38.412Z,16
2017-07-15T09:43:39.886Z,16
2017-07-15T09:44:41.690Z,16
2017-07-15T09:45:43.160Z,16
2017-07-15T09:46:44.959Z,16
2017-07-15T09:47:47.095Z,16
2017-07-15T09:48:48.561Z,16
2017-07-15T09:49:50.699Z,16
2017-07-15T09:50:51.825Z,16
2017-07-15T09:51:53.955Z,22
2017-07-15T09:52:55.399Z,22
2017-07-15T09:53:56.846Z,22
2017-07-15T09:54:58.623Z,22
2017-07-15T09:55:59.733Z,22
2017-07-15T09:57:01.534Z,16
2017-07-15T09:58:03.668Z,16
2017-07-15T09:59:05.802Z,16
2017-07-15T10:00:07.614Z,11
2017-07-15T10:01:09.416Z,16
2017-07-15T10:02:11.193Z,22
2017-07-15T10:03:12.645Z,16
2017-07-15T10:04:14.443Z,16
2017-07-15T10:05:15.891Z,16
2017-07-15T10:06:16.999Z,16
2017-07-15T10:07:19.137Z,16
2017-07-15T10:08:20.605Z,16
2017-07-15T10:09:22.753Z,16
2017-07-15T10:10:24.888Z,16
2017-07-15T10:11:27.023Z,16
2017-07-15T10:12:29.158Z,16
2017-07-15T10:13:30.622Z,22
2017-07-15T10:14:32.092Z,16
2017-07-15T10:15:34.229Z,22
2017-07-15T10:16:36.034Z,16
2017-07-15T10:17:37.834Z,16
2017-07-15T10:18:39.614Z,16
2017-07-15T10:19:41.760Z,16
2017-07-15T10:20:43.895Z,16
2017-07-15T10:21:46.031Z,16
2017-07-15T10:22:47.831Z,22
2017-07-15T10:23:49.635Z,22
2017-07-15T10:24:51.771Z,22
2017-07-15T10:25:53.218Z,16
2017-07-15T10:26:54.996Z,16
2017-07-15T10:27:56.800Z,16
2017-07-15T10:28:58.608Z,22
2017-07-15T10:30:00.741Z,16
2017-07-15T10:31:02.309Z,16
2017-07-15T10:32:04.133Z,16
2017-07-15T10:33:06.259Z,11
2017-07-15T10:34:08.393Z,11
2017-07-15T10:35:10.194Z,11
2017-07-15T10:36:12.330Z,11
2017-07-15T10:37:13.834Z,11
2017-07-15T10:38:15.579Z,11
2017-07-15T10:39:17.050Z,11
2017-07-15T10:40:18.503Z,11
2017-07-15T10:41:20.640Z,11
2017-07-15T10:42:22.086Z,11
2017-07-15T10:43:23.889Z,11
2017-07-15T10:44:26.028Z,11
2017-07-15T10:45:27.831Z,11
2017-07-15T10:46:29.970Z,11
2017-07-15T10:47:31.772Z,11
2017-07-15T10:48:33.920Z,11
2017-07-15T10:49:35.354Z,11
2017-07-15T10:50:37.163Z,16
2017-07-15T10:51:38.625Z,16
2017-07-15T10:52:40.445Z,16
2017-07-15T10:53:42.223Z,22
2017-07-15T10:54:44.002Z,22
2017-07-15T10:55:45.803Z,22
2017-07-15T10:56:47.635Z,22
2017-07-15T10:57:49.437Z,16
2017-07-15T10:58:51.577Z,16
2017-07-15T10:59:53.360Z,16
2017-07-15T11:00:55.573Z,22
2017-07-15T11:01:57.353Z,22
2017-07-15T11:02:58.799Z,22
2017-07-15T11:03:59.573Z,22
2017-07-15T11:05:01.717Z,22
2017-07-15T11:06:03.517Z,22
2017-07-15T11:07:04.626Z,16
2017-07-15T11:08:06.404Z,16
2017-07-15T11:09:07.869Z,16
2017-07-15T11:10:09.294Z,16
2017-07-15T11:11:10.737Z,16
2017-07-15T11:12:12.877Z,16
2017-07-15T11:13:15.015Z,16
2017-07-15T11:14:16.496Z,28
2017-07-15T11:15:18.265Z,22
2017-07-15T11:16:19.710Z,16
2017-07-15T11:17:20.844Z,16
2017-07-15T11:18:22.645Z,16
2017-07-15T11:19:24.448Z,22
2017-07-15T11:20:26.583Z,22
2017-07-15T11:21:28.727Z,22
2017-07-15T11:22:30.172Z,22
2017-07-15T11:23:31.620Z,22
2017-07-15T11:24:33.422Z,22
2017-07-15T11:25:34.891Z,16
2017-07-15T11:26:36.356Z,16
2017-07-15T11:27:38.161Z,16
2017-07-15T11:28:39.964Z,16
2017-07-15T11:29:41.770Z,16
2017-07-15T11:30:43.548Z,16
2017-07-15T11:31:45.354Z,16
2017-07-15T11:32:46.823Z,11
2017-07-15T11:33:48.628Z,11
2017-07-15T11:34:50.424Z,16
2017-07-15T11:35:52.560Z,16
2017-07-15T11:36:54.364Z,16
2017-07-15T11:37:55.813Z,16
2017-07-15T11:38:56.926Z,16
2017-07-15T11:39:59.058Z,16
2017-07-15T11:41:00.857Z,16
2017-07-15T11:42:02.666Z,16
2017-07-15T11:43:04.460Z,16
2017-07-15T11:44:06.238Z,16
2017-07-15T11:45:07.688Z,16
2017-07-15T11:46:08.795Z,11
2017-07-15T11:47:10.931Z,11
2017-07-15T11:48:12.734Z,11
2017-07-15T11:49:13.509Z,11
2017-07-15T11:50:14.963Z,11
2017-07-15T11:51:17.094Z,11
2017-07-15T11:52:18.902Z,11
2017-07-15T11:53:20.367Z,11
2017-07-15T11:54:22.510Z,11
2017-07-15T11:55:24.307Z,16
2017-07-15T11:56:25.749Z,16
2017-07-15T11:57:27.888Z,16
2017-07-15T11:58:29.719Z,16
2017-07-15T11:59:31.161Z,22
2017-07-15T12:00:32.962Z,22
2017-07-15T12:01:35.099Z,22
2017-07-15T12:02:36.236Z,22
2017-07-15T12:03:38.369Z,22
2017-07-15T12:04:40.510Z,16
2017-07-15T12:05:42.643Z,16
2017-07-15T12:06:44.111Z,16
2017-07-15T12:07:45.914Z,16
2017-07-15T12:08:48.056Z,16
2017-07-15T12:09:50.190Z,16
2017-07-15T12:10:51.321Z,11
2017-07-15T12:11:53.461Z,11
2017-07-15T12:12:55.270Z,11
2017-07-15T12:13:56.714Z,11
2017-07-15T12:14:58.519Z,11
2017-07-15T12:16:00.319Z,11
2017-07-15T12:17:02.121Z,11
2017-07-15T12:18:04.257Z,11
2017-07-15T12:19:06.034Z,11
2017-07-15T12:20:07.506Z,11
2017-07-15T12:21:09.314Z,11
2017-07-15T12:22:10.781Z,11
2017-07-15T12:23:12.302Z,11
2017-07-15T12:24:14.095Z,11
2017-07-15T12:25:15.544Z,16
2017-07-15T12:26:17.026Z,16
2017-07-15T12:27:19.154Z,16
2017-07-15T12:28:21.007Z,16
2017-07-15T12:29:22.455Z,16
2017-07-15T12:30:24.590Z,16
2017-07-15T12:31:26.392Z,16
2017-07-15T12:32:28.173Z,16
2017-07-15T12:33:29.955Z,16
2017-07-15T12:34:31.418Z,16
2017-07-15T12:35:32.867Z,16
2017-07-15T12:36:34.312Z,16
2017-07-15T12:37:36.118Z,16
2017-07-15T12:38:37.560Z,16
2017-07-15T12:39:39.362Z,16
2017-07-15T12:40:41.140Z,11
2017-07-15T12:41:42.584Z,11
2017-07-15T12:42:44.028Z,16
2017-07-15T12:43:45.476Z,16
2017-07-15T12:44:47.608Z,16
2017-07-15T12:45:49.074Z,16
2017-07-15T12:46:50.552Z,16
2017-07-15T12:47:51.677Z,16
2017-07-15T12:48:53.140Z,16
2017-07-15T12:49:55.279Z,16
2017-07-15T12:50:57.082Z,16
2017-07-15T12:51:58.885Z,16
2017-07-15T12:53:00.671Z,16
2017-07-15T12:54:01.777Z,16
2017-07-15T12:55:03.242Z,16
2017-07-15T12:56:04.353Z,16
2017-07-15T12:57:06.155Z,16
2017-07-15T12:58:07.936Z,16
2017-07-15T12:59:10.074Z,16
2017-07-15T13:00:11.877Z,16
2017-07-15T13:01:14.019Z,16
2017-07-15T13:02:15.463Z,16
2017-07-15T13:03:17.243Z,16
2017-07-15T13:04:19.379Z,16
2017-07-15T13:05:21.183Z,16
2017-07-15T13:06:23.321Z,22
2017-07-15T13:07:25.455Z,22
2017-07-15T13:08:27.261Z,22
2017-07-15T13:09:29.433Z,22
2017-07-15T13:10:31.179Z,22
2017-07-15T13:11:32.291Z,22
2017-07-15T13:12:34.094Z,22
2017-07-15T13:13:35.900Z,22
2017-07-15T13:14:38.032Z,22
2017-07-15T13:15:40.172Z,22
2017-07-15T13:16:41.972Z,22
2017-07-15T13:17:43.774Z,22
2017-07-15T13:18:45.573Z,22
2017-07-15T13:19:47.746Z,22
2017-07-15T13:20:49.884Z,22
2017-07-15T13:21:51.685Z,22
2017-07-15T13:22:53.486Z,22
2017-07-15T13:23:55.622Z,22
2017-07-15T13:24:57.863Z,22
2017-07-15T13:25:59.665Z,22
2017-07-15T13:27:01.463Z,22
2017-07-15T13:28:03.266Z,22
2017-07-15T13:29:04.378Z,22
2017-07-15T13:30:06.513Z,22
2017-07-15T13:31:08.316Z,22
2017-07-15T13:32:10.455Z,22
2017-07-15T13:33:12.596Z,22
2017-07-15T13:34:14.730Z,22
2017-07-15T13:35:15.863Z,22
2017-07-15T13:36:16.977Z,16
2017-07-15T13:37:19.114Z,16
2017-07-15T13:38:20.561Z,16
2017-07-15T13:39:22.366Z,16
2017-07-15T13:40:24.166Z,16
2017-07-15T13:41:26.304Z,16
2017-07-15T13:42:28.109Z,16
2017-07-15T13:43:30.245Z,22
2017-07-15T13:44:32.026Z,22
2017-07-15T13:45:33.858Z,16
2017-07-15T13:46:35.658Z,16
2017-07-15T13:47:37.792Z,16
2017-07-15T13:48:39.599Z,16
2017-07-15T13:49:41.380Z,16
2017-07-15T13:50:43.620Z,16
2017-07-15T13:51:45.420Z,16
2017-07-15T13:52:47.226Z,16
2017-07-15T13:53:49.027Z,16
2017-07-15T13:54:50.498Z,16
2017-07-15T13:55:52.633Z,22
2017-07-15T13:56:53.752Z,22
2017-07-15T13:57:55.557Z,22
2017-07-15T13:58:57.694Z,22
2017-07-15T13:59:59.852Z,22
2017-07-15T14:01:01.651Z,22
2017-07-15T14:02:03.789Z,22
2017-07-15T14:03:05.590Z,22
2017-07-15T14:04:06.363Z,22
2017-07-15T14:05:08.143Z,22
2017-07-15T14:06:09.942Z,22
2017-07-15T14:07:11.408Z,22
2017-07-15T14:08:13.210Z,22
2017-07-15T14:09:15.351Z,22
2017-07-15T14:10:17.151Z,22
2017-07-15T14:11:19.288Z,22
2017-07-15T14:12:21.091Z,22
2017-07-15T14:13:22.892Z,22
2017-07-15T14:14:24.338Z,22
2017-07-15T14:15:26.473Z,22
2017-07-15T14:16:27.919Z,22
2017-07-15T14:17:29.366Z,22
2017-07-15T14:18:31.502Z,22
2017-07-15T14:19:33.303Z,22
2017-07-15T14:20:34.769Z,22
2017-07-15T14:21:36.574Z,28
2017-07-15T14:22:38.377Z,28
2017-07-15T14:23:40.156Z,28
2017-07-15T14:24:41.958Z,22
2017-07-15T14:25:44.097Z,22
2017-07-15T14:26:45.540Z,22
2017-07-15T14:27:46.986Z,22
2017-07-15T14:28:48.428Z,16
2017-07-15T14:29:49.877Z,16
2017-07-15T14:30:51.348Z,22
2017-07-15T14:31:53.480Z,22
2017-07-15T14:32:54.945Z,16
2017-07-15T14:33:56.391Z,16
2017-07-15T14:34:58.528Z,16
2017-07-15T14:35:59.639Z,16
2017-07-15T14:37:01.417Z,16
2017-07-15T14:38:02.550Z,16
2017-07-15T14:39:04.700Z,16
2017-07-15T14:40:05.830Z,22
2017-07-15T14:41:07.634Z,22
2017-07-15T14:42:09.104Z,16
2017-07-15T14:43:10.211Z,22
2017-07-15T14:44:12.372Z,22
2017-07-15T14:45:13.840Z,22
2017-07-15T14:46:15.977Z,22
2017-07-15T14:47:17.757Z,22
2017-07-15T14:48:19.225Z,22
2017-07-15T14:49:21.028Z,22
2017-07-15T14:50:22.137Z,16
2017-07-15T14:51:55.721Z,22
2017-07-15T14:52:57.188Z,16
2017-07-15T14:53:58.988Z,16
2017-07-15T14:55:01.130Z,22